Time;durP1;ratioP1;P1;durP2;ratioP2;P2;SDS_P1;SDS_P2;PMS_P1;PMS_P2;Temp;Humidity;BMP_temperature;BMP_pressure;BME280_temperature;BME280_humidity;BME280_pressure;Samples;Min_cycle;Max_cycle;Signal;HPM_P1;HPM_P2
2021/10/05 00:02:16;;;;;;;5.03;1.85;;;;;;;14.23;70.66;101130.41;4877749;29;20699;-69
2021/10/05 00:04:41;;;;;;;6.07;2.00;;;;;;;14.22;70.33;101128.66;4889821;29;20062;-69
2021/10/05 00:07:07;;;;;;;6.30;2.17;;;;;;;14.13;70.63;101124.28;4884488;28;20035;-69
2021/10/05 00:09:32;;;;;;;6.60;1.98;;;;;;;14.09;70.71;101121.63;4885173;29;20082;-67
2021/10/05 00:11:58;;;;;;;5.78;2.10;;;;;;;14.05;71.06;101117.25;4887093;28;22121;-69
2021/10/05 00:14:24;;;;;;;6.60;2.00;;;;;;;13.97;71.45;101106.72;4874683;29;22425;-68
2021/10/05 00:16:50;;;;;;;5.50;1.90;;;;;;;13.87;71.83;101107.59;4888893;29;20592;-69
2021/10/05 00:19:16;;;;;;;6.75;2.00;;;;;;;13.93;71.49;101093.63;4889659;28;20872;-68
2021/10/05 00:21:41;;;;;;;7.47;2.03;;;;;;;13.80;71.82;101088.34;4887200;29;20059;-68
2021/10/05 00:24:07;;;;;;;5.03;1.77;;;;;;;13.86;71.69;101089.22;4858354;29;20047;-68
2021/10/05 00:26:32;;;;;;;6.20;1.98;;;;;;;13.86;71.42;101078.75;4889341;29;20776;-68
2021/10/05 00:28:57;;;;;;;5.53;1.77;;;;;;;13.85;71.39;101076.97;4888986;28;20035;-67
2021/10/05 00:31:23;;;;;;;6.20;1.90;;;;;;;13.82;71.48;101078.75;4884010;29;20521;-68
2021/10/05 00:33:48;;;;;;;6.63;2.15;;;;;;;13.81;71.30;101079.63;4891795;29;20107;-68
2021/10/05 00:36:13;;;;;;;9.30;1.98;;;;;;;13.78;71.49;101071.72;4874458;28;20150;-68
2021/10/05 00:38:39;;;;;;;6.50;1.80;;;;;;;13.84;70.91;101077.88;4883499;29;20377;-70
2021/10/05 00:41:04;;;;;;;6.72;1.70;;;;;;;13.80;71.21;101079.59;4871107;29;20679;-68
2021/10/05 00:43:30;;;;;;;4.20;1.70;;;;;;;13.76;71.29;101083.09;4864060;29;20046;-68
2021/10/05 00:45:55;;;;;;;5.82;1.60;;;;;;;13.77;71.45;101077.88;4895240;29;20048;-69
2021/10/05 00:48:21;;;;;;;5.25;1.60;;;;;;;13.68;71.38;101075.19;4871747;28;20047;-68
2021/10/05 00:50:47;;;;;;;4.95;1.70;;;;;;;13.80;70.96;101070.00;4887476;29;20087;-68
2021/10/05 00:53:13;;;;;;;4.95;1.60;;;;;;;13.87;70.53;101070.88;4893160;28;20043;-69
2021/10/05 00:55:38;;;;;;;4.57;1.73;;;;;;;13.71;70.99;101066.47;4888364;29;21016;-68
2021/10/05 00:58:04;;;;;;;4.72;1.80;;;;;;;13.77;70.49;101069.13;4875916;29;20527;-69
2021/10/05 01:00:30;;;;;;;6.85;1.67;;;;;;;13.73;70.79;101068.22;4871704;29;20613;-69
2021/10/05 01:02:56;;;;;;;4.90;1.55;;;;;;;13.73;70.54;101072.59;4886963;29;20048;-69
2021/10/05 01:05:22;;;;;;;4.22;1.50;;;;;;;13.81;70.20;101070.88;4890625;28;20040;-68
2021/10/05 01:07:48;;;;;;;7.05;1.60;;;;;;;13.85;69.89;101069.13;4884396;29;20529;-68
2021/10/05 01:10:17;;;;;;;5.93;1.70;;;;;;;13.78;70.34;101068.25;4886109;28;20077;-67
2021/10/05 01:12:44;;;;;;;3.80;1.70;;;;;;;13.71;70.17;101059.50;4890673;29;20043;-67
2021/10/05 01:15:10;;;;;;;5.72;1.50;;;;;;;13.72;70.56;101048.13;4895103;29;20529;-69
2021/10/05 01:17:35;;;;;;;4.70;1.50;;;;;;;13.71;70.15;101046.41;4889794;29;20130;-68
2021/10/05 01:20:01;;;;;;;5.32;1.50;;;;;;;13.67;70.26;101051.59;4888053;29;20051;-67
2021/10/05 01:22:26;;;;;;;4.88;1.50;;;;;;;13.75;69.42;101036.78;4884851;28;20039;-68
2021/10/05 01:24:51;;;;;;;4.65;1.67;;;;;;;13.68;69.68;101030.66;4895088;29;20039;-69
2021/10/05 01:27:17;;;;;;;3.67;1.45;;;;;;;13.67;70.12;101026.28;4890208;28;20075;-70
2021/10/05 01:29:42;;;;;;;4.82;1.63;;;;;;;13.68;70.03;101030.66;4887563;29;20456;-68
2021/10/05 01:32:08;;;;;;;6.43;1.70;;;;;;;13.60;70.21;101027.13;4884091;29;20082;-67
2021/10/05 01:34:33;;;;;;;5.90;1.40;;;;;;;13.59;70.27;101020.16;4883588;28;20278;-68
2021/10/05 01:36:59;;;;;;;5.30;1.50;;;;;;;13.54;70.42;101018.41;4889797;29;20062;-68
2021/10/05 01:39:36;;;;;;;7.32;1.80;;;;;;;13.46;71.06;101020.97;4893752;28;20118;-68
2021/10/05 01:42:05;;;;;;;6.95;1.58;;;;;;;13.53;70.75;101022.75;4879465;29;20325;-68
2021/10/05 01:44:33;;;;;;;6.53;1.42;;;;;;;13.57;70.20;101023.63;4888149;29;21327;-67
2021/10/05 01:46:58;;;;;;;7.10;1.40;;;;;;;13.55;70.44;101031.47;4891371;29;20043;-68
2021/10/05 01:49:24;;;;;;;3.53;1.33;;;;;;;13.50;70.64;101035.81;4884323;29;20309;-68
2021/10/05 01:51:50;;;;;;;4.60;1.50;;;;;;;13.55;69.86;101030.59;4889467;28;20401;-68
2021/10/05 01:54:16;;;;;;;4.50;1.60;;;;;;;13.56;70.18;101027.13;4879826;29;20040;-68
2021/10/05 01:56:42;;;;;;;4.88;1.45;;;;;;;13.42;71.12;101016.56;4884166;28;20038;-69
2021/10/05 01:59:08;;;;;;;5.45;1.42;;;;;;;13.53;70.22;101003.53;4888743;29;20118;-70
2021/10/05 02:01:33;;;;;;;5.28;1.60;;;;;;;13.51;70.33;101000.03;4888545;28;21037;-70
2021/10/05 02:04:01;;;;;;;3.90;1.38;;;;;;;13.47;70.76;100980.81;4890742;29;20062;-70
2021/10/05 02:06:28;;;;;;;5.45;1.40;;;;;;;13.46;70.10;100970.34;4883718;29;20231;-70
2021/10/05 02:08:53;;;;;;;4.45;1.50;;;;;;;13.46;70.08;100973.84;4890903;28;20051;-68
2021/10/05 02:11:19;;;;;;;3.53;1.35;;;;;;;13.55;69.69;100968.59;4891358;29;20055;-68
2021/10/05 02:13:44;;;;;;;5.65;1.27;;;;;;;13.49;70.37;100970.34;4870307;29;20048;-68
2021/10/05 02:16:10;;;;;;;7.72;1.23;;;;;;;13.51;70.47;100960.75;4868256;29;20668;-68
2021/10/05 02:18:35;;;;;;;8.35;1.50;;;;;;;13.43;70.50;100959.84;4888615;28;20055;-68
2021/10/05 02:21:00;;;;;;;8.45;1.88;;;;;;;13.40;70.51;100943.28;4892723;29;20177;-68
2021/10/05 02:26:23;;;;;;;2.50;1.35;;;;;;;13.40;70.35;100943.28;4852518;29;20056;-69
2021/10/05 02:28:49;;;;;;;4.68;1.30;;;;;;;13.40;70.51;100932.78;4882671;29;20040;-67
2021/10/05 02:31:14;;;;;;;5.05;1.50;;;;;;;13.40;70.39;100935.41;4887355;29;20082;-67
2021/10/05 02:33:39;;;;;;;4.30;1.33;;;;;;;13.50;70.39;100927.56;4891043;29;20142;-67
2021/10/05 02:36:05;;;;;;;5.00;1.35;;;;;;;13.44;70.19;100922.31;4882901;28;20087;-68
2021/10/05 02:38:30;;;;;;;5.28;1.70;;;;;;;13.47;70.13;100910.13;4884771;29;20446;-68
2021/10/05 02:40:56;;;;;;;3.47;1.17;;;;;;;13.33;71.21;100922.28;4894636;29;20040;-68
2021/10/05 02:43:21;;;;;;;7.85;1.55;;;;;;;13.40;70.88;100908.34;4886800;28;20127;-68
2021/10/05 02:45:46;;;;;;;3.95;1.17;;;;;;;13.48;70.35;100901.34;4885916;29;20048;-67
2021/10/05 02:48:12;;;;;;;6.88;1.50;;;;;;;13.49;70.01;100897.00;4859429;29;20505;-68
2021/10/05 02:50:37;;;;;;;5.50;1.63;;;;;;;13.45;70.48;100896.13;4886815;29;20525;-67
2021/10/05 02:53:02;;;;;;;4.57;1.40;;;;;;;13.44;70.22;100885.66;4892845;28;20430;-68
2021/10/05 02:55:28;;;;;;;10.20;1.63;;;;;;;13.44;70.24;100883.91;4884747;29;20456;-68
2021/10/05 02:57:53;;;;;;;4.32;1.27;;;;;;;13.41;70.66;100881.28;4886303;29;20051;-67
2021/10/05 03:00:19;;;;;;;7.00;1.40;;;;;;;13.41;70.26;100881.28;4868594;28;21002;-68
2021/10/05 03:02:44;;;;;;;6.13;1.40;;;;;;;13.39;70.44;100877.78;4888265;29;20295;-70
2021/10/05 03:05:09;;;;;;;9.07;1.50;;;;;;;13.38;70.53;100869.06;4892026;28;20048;-67
2021/10/05 03:07:35;;;;;;;3.70;1.40;;;;;;;13.33;70.58;100873.41;4865013;29;20106;-68
2021/10/05 03:10:00;;;;;;;4.80;1.45;;;;;;;13.30;70.82;100867.28;4891339;29;20047;-68
2021/10/05 03:12:26;;;;;;;3.80;1.42;;;;;;;13.24;70.47;100860.28;4881883;28;20050;-68
2021/10/05 03:14:52;;;;;;;4.15;1.60;;;;;;;13.27;70.37;100854.19;4891667;29;20043;-68
2021/10/05 03:17:17;;;;;;;4.15;1.42;;;;;;;13.38;69.86;100845.50;4885026;28;20043;-68
2021/10/05 03:19:43;;;;;;;2.90;1.23;;;;;;;13.28;69.95;100842.88;4889093;29;20134;-68
2021/10/05 03:22:09;;;;;;;4.20;1.65;;;;;;;13.37;69.55;100840.25;4871603;28;20118;-69
2021/10/05 03:24:34;;;;;;;4.32;1.27;;;;;;;13.45;69.35;100838.53;4885133;29;20055;-69
2021/10/05 03:26:59;;;;;;;4.07;1.40;;;;;;;13.42;69.45;100828.03;4891033;29;20497;-68
2021/10/05 03:29:25;;;;;;;8.65;1.50;;;;;;;13.50;68.85;100825.41;4886703;28;20071;-67
2021/10/05 03:31:50;;;;;;;4.60;1.30;;;;;;;13.48;69.21;100816.72;4893239;29;20134;-68
2021/10/05 03:34:15;;;;;;;5.22;1.48;;;;;;;13.40;69.36;100816.69;4881033;28;20072;-68
2021/10/05 03:36:41;;;;;;;5.35;1.50;;;;;;;13.37;69.30;100812.31;4883920;29;20040;-68
2021/10/05 03:39:06;;;;;;;5.10;1.50;;;;;;;13.36;69.69;100814.91;4890314;28;20039;-68
2021/10/05 03:41:32;;;;;;;5.55;1.40;;;;;;;13.35;69.70;100813.22;4888549;29;20066;-68
2021/10/05 03:43:58;;;;;;;6.95;1.30;;;;;;;13.28;69.94;100811.44;4884078;29;20047;-67
2021/10/05 03:46:24;;;;;;;4.85;1.40;;;;;;;13.13;69.94;100811.41;4868376;29;23141;-68
2021/10/05 03:48:49;;;;;;;5.28;1.27;;;;;;;13.25;70.12;100800.94;4888389;29;20086;-68
2021/10/05 03:51:15;;;;;;;6.78;1.38;;;;;;;13.18;70.53;100793.94;4884266;28;20633;-67
2021/10/05 03:53:40;;;;;;;5.65;1.50;;;;;;;13.20;70.28;100795.72;4885354;29;20090;-67
2021/10/05 03:56:06;;;;;;;4.15;1.40;;;;;;;13.17;70.40;100787.00;4884149;29;20047;-68
2021/10/05 03:58:31;;;;;;;4.95;1.30;;;;;;;13.18;70.12;100786.97;4884797;28;20562;-67
2021/10/05 04:00:56;;;;;;;3.38;1.40;;;;;;;13.18;70.54;100775.63;4886644;29;20110;-67
2021/10/05 04:03:23;;;;;;;4.85;1.38;;;;;;;13.07;70.71;100780.81;4883802;28;20040;-67
2021/10/05 04:05:52;;;;;;;6.80;1.50;;;;;;;13.13;70.28;100769.53;4889513;29;20134;-68
2021/10/05 04:08:20;;;;;;;4.82;1.45;;;;;;;13.22;69.94;100769.56;4885284;28;20046;-68
2021/10/05 04:10:48;;;;;;;4.75;1.52;;;;;;;13.17;70.31;100759.09;4885892;29;20142;-69
2021/10/05 04:13:14;;;;;;;5.30;1.55;;;;;;;13.16;69.91;100759.94;4887836;29;20114;-68
2021/10/05 04:15:39;;;;;;;4.10;1.40;;;;;;;13.21;70.11;100755.59;4888348;28;20060;-68
2021/10/05 04:18:04;;;;;;;5.40;1.50;;;;;;;13.10;70.44;100749.44;4860250;29;20040;-68
2021/10/05 04:20:30;;;;;;;7.00;1.63;;;;;;;13.14;70.27;100751.22;4882559;28;20063;-69
2021/10/05 04:22:55;;;;;;;3.92;1.50;;;;;;;13.16;69.88;100746.88;4872485;29;20051;-68
2021/10/05 04:25:21;;;;;;;6.07;1.60;;;;;;;13.12;70.27;100744.19;4891678;28;20071;-68
2021/10/05 04:27:49;;;;;;;9.60;1.58;;;;;;;13.08;70.40;100745.06;4883231;29;20049;-68
2021/10/05 04:30:14;;;;;;;5.07;1.60;;;;;;;13.04;70.69;100740.72;4879271;29;20046;-68
2021/10/05 04:32:39;;;;;;;7.35;1.55;;;;;;;13.11;70.55;100745.09;4887276;28;20040;-67
2021/10/05 04:35:06;;;;;;;3.65;1.58;;;;;;;13.11;70.51;100738.09;4863829;29;20048;-67
2021/10/05 04:37:31;;;;;;;4.13;1.60;;;;;;;13.13;70.44;100741.59;4883594;28;20039;-68
2021/10/05 04:39:56;;;;;;;3.55;1.35;;;;;;;13.08;70.95;100745.06;4885799;29;20046;-67
2021/10/05 04:42:22;;;;;;;5.97;1.50;;;;;;;13.02;70.96;100738.06;4884886;29;20276;-69
2021/10/05 04:44:47;;;;;;;4.88;1.70;;;;;;;12.93;71.64;100735.44;4884483;28;20036;-69
2021/10/05 04:47:13;;;;;;;6.80;1.50;;;;;;;12.94;71.35;100730.22;4890280;29;20047;-69
2021/10/05 04:49:38;;;;;;;3.97;1.48;;;;;;;12.98;71.03;100733.72;4886557;28;20705;-68
2021/10/05 04:52:04;;;;;;;5.85;1.63;;;;;;;12.98;71.00;100734.59;4884568;29;20532;-68
2021/10/05 04:54:30;;;;;;;9.32;1.60;;;;;;;12.98;71.33;100733.72;4890815;29;20395;-67
2021/10/05 04:56:55;;;;;;;4.15;1.60;;;;;;;13.05;71.13;100729.38;4887848;29;20043;-68
2021/10/05 04:59:21;;;;;;;4.10;1.40;;;;;;;12.92;71.61;100720.63;4899796;29;20043;-68
2021/10/05 05:01:46;;;;;;;4.43;1.40;;;;;;;12.97;71.42;100722.38;4892080;28;20043;-69
2021/10/05 05:04:12;;;;;;;4.10;1.40;;;;;;;12.95;71.58;100716.25;4880734;29;20138;-68
2021/10/05 05:06:38;;;;;;;3.95;1.73;;;;;;;12.93;71.71;100717.13;4875178;29;20584;-67
2021/10/05 05:09:05;;;;;;;3.92;1.52;;;;;;;12.95;71.38;100715.38;4891433;29;20631;-68
2021/10/05 05:11:30;;;;;;;5.78;2.00;;;;;;;12.84;72.02;100704.03;4896511;28;20536;-67
2021/10/05 05:13:56;;;;;;;8.80;1.80;;;;;;;12.88;72.13;100705.78;4884054;29;20079;-68
2021/10/05 05:16:22;;;;;;;4.15;1.55;;;;;;;12.85;72.34;100695.31;4887808;29;20049;-69
2021/10/05 05:18:47;;;;;;;3.75;1.58;;;;;;;12.91;71.97;100690.09;4891478;28;20086;-67
2021/10/05 05:21:12;;;;;;;6.35;1.50;;;;;;;12.88;72.39;100684.84;4888131;29;20047;-68
2021/10/05 05:23:38;;;;;;;4.68;1.60;;;;;;;12.78;72.70;100683.09;4893364;28;20039;-68
2021/10/05 05:26:04;;;;;;;3.13;1.60;;;;;;;12.82;72.44;100679.59;4883029;29;20071;-68
2021/10/05 05:28:29;;;;;;;5.90;1.65;;;;;;;12.88;72.28;100675.25;4890849;29;20551;-68
2021/10/05 05:30:55;;;;;;;5.13;1.75;;;;;;;12.88;72.23;100667.41;4890011;28;20597;-68
2021/10/05 05:33:20;;;;;;;4.70;1.63;;;;;;;12.70;73.13;100662.16;4871213;29;20050;-68
2021/10/05 05:35:46;;;;;;;5.03;1.77;;;;;;;12.68;73.21;100658.69;4895011;28;20588;-68
2021/10/05 05:38:11;;;;;;;4.00;1.50;;;;;;;12.76;72.70;100656.94;4880205;29;20893;-67
2021/10/05 05:40:37;;;;;;;5.55;1.60;;;;;;;12.87;72.52;100664.78;4892360;28;20542;-67
2021/10/05 05:43:02;;;;;;;4.28;1.63;;;;;;;12.89;72.53;100661.31;4890532;29;20047;-68
2021/10/05 05:45:30;;;;;;;6.63;1.70;;;;;;;12.88;72.15;100664.78;4892245;28;20050;-67
2021/10/05 05:47:55;;;;;;;5.30;1.63;;;;;;;13.01;71.96;100661.31;4889218;28;20056;-69
2021/10/05 05:50:20;;;;;;;7.47;1.73;;;;;;;12.93;72.19;100662.16;4885861;29;20070;-69
2021/10/05 05:52:46;;;;;;;5.75;1.80;;;;;;;12.88;72.21;100667.41;4884307;28;20122;-68
2021/10/05 05:55:15;;;;;;;4.03;1.70;;;;;;;13.00;72.00;100662.19;4887930;29;20626;-69
2021/10/05 05:57:41;;;;;;;3.22;1.58;;;;;;;13.01;72.06;100658.69;4876401;29;20408;-70
2021/10/05 06:00:07;;;;;;;7.68;1.63;;;;;;;13.04;71.56;100657.84;4881330;29;20079;-69
2021/10/05 06:02:32;;;;;;;3.40;1.63;;;;;;;12.87;72.25;100644.72;4890038;29;20055;-67
2021/10/05 06:04:58;;;;;;;6.18;2.03;;;;;;;12.97;71.73;100654.34;4881129;28;21041;-69
2021/10/05 06:07:23;;;;;;;3.30;1.80;;;;;;;13.01;71.87;100642.13;4889755;28;20310;-69
2021/10/05 06:09:48;;;;;;;4.53;1.90;;;;;;;12.95;72.16;100634.25;4888598;28;20047;-68
2021/10/05 06:12:18;;;;;;;5.93;1.85;;;;;;;13.00;71.80;100630.78;4879036;29;20056;-68
2021/10/05 06:14:43;;;;;;;8.65;1.75;;;;;;;13.01;72.02;100629.03;4896050;29;20142;-68
2021/10/05 06:17:10;;;;;;;5.05;1.90;;;;;;;13.00;71.67;100628.16;4889303;28;20035;-68
2021/10/05 06:19:35;;;;;;;6.75;1.63;;;;;;;12.86;72.03;100627.31;4891781;29;20039;-69
2021/10/05 06:22:01;;;;;;;4.45;1.77;;;;;;;13.06;71.64;100622.03;4881109;29;20150;-69
2021/10/05 06:24:26;;;;;;;4.53;1.70;;;;;;;13.16;71.33;100625.56;4885793;29;20450;-69
2021/10/05 06:26:52;;;;;;;7.95;1.77;;;;;;;13.16;71.35;100623.84;4890060;28;20054;-69
2021/10/05 06:29:17;;;;;;;3.90;1.60;;;;;;;13.29;70.78;100628.19;4885512;29;20418;-68
2021/10/05 06:31:42;;;;;;;6.55;1.70;;;;;;;13.42;70.27;100618.53;4876365;29;20051;-68
2021/10/05 06:34:08;;;;;;;5.18;1.48;;;;;;;13.46;70.24;100619.41;4882224;28;20516;-67
2021/10/05 06:36:33;;;;;;;4.10;1.67;;;;;;;13.77;69.85;100621.94;4891114;29;20096;-69
2021/10/05 06:38:59;;;;;;;6.53;1.63;;;;;;;14.10;68.20;100610.41;4871713;29;20043;-70
2021/10/05 06:41:25;;;;;;;5.15;1.50;;;;;;;14.56;67.15;100607.56;4871721;29;20046;-68
2021/10/05 06:43:50;;;;;;;5.40;1.70;;;;;;;14.69;66.16;100597.84;4895746;28;20082;-71
2021/10/05 06:46:16;;;;;;;3.58;1.48;;;;;;;14.96;65.42;100592.34;4879237;29;20043;-68
2021/10/05 06:48:41;;;;;;;6.00;1.90;;;;;;;14.82;65.34;100594.25;4895212;29;20058;-68
2021/10/05 06:51:07;;;;;;;4.32;1.60;;;;;;;14.79;65.37;100582.00;4894595;28;20564;-68
2021/10/05 06:53:32;;;;;;;6.25;1.50;;;;;;;14.50;67.16;100592.75;4894419;29;20118;-68
2021/10/05 06:55:59;;;;;;;4.47;1.70;;;;;;;14.33;67.48;100583.22;4899803;28;20043;-69
2021/10/05 06:58:24;;;;;;;6.85;1.75;;;;;;;14.47;66.73;100584.00;4883225;29;20514;-68
2021/10/05 07:00:50;;;;;;;3.95;1.60;;;;;;;14.51;67.14;100573.50;4897051;29;20089;-70
2021/10/05 07:03:15;;;;;;;4.70;1.38;;;;;;;14.65;66.93;100572.50;4844884;29;21199;-68
2021/10/05 07:05:40;;;;;;;4.10;1.65;;;;;;;14.44;67.31;100569.19;4884536;29;20040;-69
2021/10/05 07:08:08;;;;;;;6.57;1.85;;;;;;;14.29;67.60;100561.38;4870485;29;20040;-68
2021/10/05 07:10:37;;;;;;;5.57;1.67;;;;;;;13.89;69.30;100557.25;4893679;29;20345;-69
2021/10/05 07:13:03;;;;;;;7.38;1.80;;;;;;;14.19;68.62;100554.44;4878243;28;20516;-68
2021/10/05 07:15:29;;;;;;;4.60;1.80;;;;;;;14.34;68.49;100550.84;4870946;29;20043;-69
2021/10/05 07:17:56;;;;;;;6.22;1.70;;;;;;;14.37;68.43;100548.22;4881443;29;20308;-69
2021/10/05 07:20:21;;;;;;;4.22;1.70;;;;;;;14.31;68.39;100543.00;4875193;28;20532;-69
2021/10/05 07:22:47;;;;;;;5.32;1.77;;;;;;;14.42;68.25;100535.97;4893789;29;20126;-70
2021/10/05 07:25:12;;;;;;;4.38;1.90;;;;;;;14.57;67.96;100541.09;4893135;29;20052;-68
2021/10/05 07:27:38;;;;;;;4.85;1.83;;;;;;;14.64;67.53;100539.31;4887691;29;20090;-69
2021/10/05 07:30:05;;;;;;;3.40;1.60;;;;;;;14.22;68.50;100547.44;4864553;28;20043;-68
2021/10/05 07:32:31;;;;;;;7.40;1.95;;;;;;;14.33;69.03;100536.88;4885815;29;20055;-69
2021/10/05 07:34:56;;;;;;;4.07;1.70;;;;;;;14.69;67.64;100530.50;4886563;29;20056;-70
2021/10/05 07:37:21;;;;;;;6.15;1.75;;;;;;;14.67;68.25;100526.13;4885966;28;20044;-68
2021/10/05 07:39:47;;;;;;;5.68;1.60;;;;;;;14.67;67.49;100515.66;4869453;29;20040;-69
2021/10/05 07:42:13;;;;;;;5.90;1.67;;;;;;;14.96;67.07;100503.97;4879948;29;20792;-69
2021/10/05 07:44:39;;;;;;;5.18;1.60;;;;;;;14.95;66.48;100511.84;4887582;29;20075;-68
2021/10/05 07:47:04;;;;;;;6.30;1.60;;;;;;;15.04;66.56;100506.53;4890616;29;20048;-69
2021/10/05 07:49:32;;;;;;;8.05;1.73;;;;;;;15.19;66.07;100502.84;4881928;29;20047;-69
2021/10/05 07:51:59;;;;;;;6.15;1.80;;;;;;;15.02;66.38;100497.78;4885451;29;20067;-69
2021/10/05 07:54:25;;;;;;;4.07;1.60;;;;;;;15.30;65.88;100480.84;4881616;28;20998;-69
2021/10/05 07:56:50;;;;;;;5.45;1.50;;;;;;;15.19;66.34;100476.59;4885683;29;20451;-69
2021/10/05 07:59:15;;;;;;;4.07;1.55;;;;;;;15.35;65.50;100471.16;4891025;28;20052;-69
2021/10/05 08:01:47;;;;;;;5.20;1.65;;;;;;;15.33;65.97;100462.41;4884104;29;20783;-68
2021/10/05 08:04:13;;;;;;;4.80;1.80;;;;;;;15.53;65.29;100461.31;4882507;29;20890;-69
2021/10/05 08:06:38;;;;;;;4.18;1.50;;;;;;;15.75;64.87;100462.75;4884229;28;20044;-70
2021/10/05 08:09:04;;;;;;;6.97;1.60;;;;;;;15.78;64.38;100439.94;4886525;29;20559;-69
2021/10/05 08:11:29;;;;;;;4.43;1.60;;;;;;;15.95;63.15;100446.69;4886601;29;20070;-69
2021/10/05 08:13:54;;;;;;;7.43;1.58;;;;;;;16.00;63.43;100421.19;4887172;29;20111;-67
2021/10/05 08:16:22;;;;;;;6.28;1.75;;;;;;;16.20;63.48;100437.53;4877982;28;20063;-68
2021/10/05 08:18:47;;;;;;;5.97;1.63;;;;;;;15.84;64.04;100423.22;4888505;29;20035;-68
2021/10/05 08:21:16;;;;;;;5.28;1.45;;;;;;;16.00;64.50;100424.69;4886216;29;20054;-68
2021/10/05 08:23:43;;;;;;;4.65;1.65;;;;;;;16.24;63.01;100429.56;4884692;28;20410;-69
2021/10/05 08:26:09;;;;;;;7.32;1.60;;;;;;;16.50;62.49;100421.22;4879833;29;20040;-69
2021/10/05 08:28:34;;;;;;;6.78;1.83;;;;;;;16.25;62.75;100404.13;4887485;28;20090;-69
2021/10/05 08:31:00;;;;;;;6.63;1.70;;;;;;;16.86;61.40;100417.06;4891365;29;22587;-69
2021/10/05 08:33:25;;;;;;;4.80;1.50;;;;;;;16.99;61.06;100409.78;4891147;28;20055;-69
2021/10/05 08:35:51;;;;;;;4.55;1.52;;;;;;;17.19;60.46;100417.28;4888782;29;20039;-67
2021/10/05 08:38:16;;;;;;;3.70;1.35;;;;;;;17.38;59.85;100419.47;4879296;29;20122;-68
2021/10/05 08:40:42;;;;;;;3.67;1.30;;;;;;;17.71;60.02;100417.03;4873649;29;20047;-68
2021/10/05 08:43:07;;;;;;;4.55;1.30;;;;;;;17.64;59.27;100418.06;4869444;29;20634;-69
2021/10/05 08:45:32;;;;;;;5.93;1.48;;;;;;;17.56;60.01;100412.09;4873377;29;20032;-68
2021/10/05 08:47:58;;;;;;;4.20;1.20;;;;;;;17.63;59.18;100406.66;4869874;29;20123;-66
2021/10/05 08:50:25;;;;;;;5.35;1.40;;;;;;;17.39;59.60;100394.88;4884780;29;21401;-69
2021/10/05 08:52:50;;;;;;;6.65;1.33;;;;;;;17.26;59.86;100400.47;4884851;28;20629;-67
2021/10/05 08:55:16;;;;;;;7.30;1.30;;;;;;;16.96;60.71;100381.75;4890215;29;20143;-69
2021/10/05 08:57:41;;;;;;;6.65;1.50;;;;;;;16.74;61.57;100384.84;4855251;29;20070;-69
2021/10/05 09:00:07;;;;;;;6.65;1.45;;;;;;;16.99;62.08;100389.59;4877484;28;20110;-68
2021/10/05 09:03:02;;;;;;;5.85;1.42;;;;;;;17.14;61.01;100369.13;4869112;29;20043;-68
2021/10/05 09:05:27;;;;;;;4.07;1.20;;;;;;;17.22;60.44;100372.44;4869665;29;20211;-68
2021/10/05 09:07:57;;;;;;;3.42;1.30;;;;;;;17.42;60.76;100365.81;4884304;29;20612;-67
2021/10/05 09:10:30;;;;;;;6.20;1.55;;;;;;;17.48;59.67;100369.22;4879290;29;20099;-68
2021/10/05 09:12:56;;;;;;;6.35;1.42;;;;;;;17.58;60.05;100370.72;4887439;29;20047;-68
2021/10/05 09:15:22;;;;;;;4.35;1.48;;;;;;;17.59;59.71;100370.69;4887458;28;20048;-68
2021/10/05 09:17:57;;;;;;;4.63;1.40;;;;;;;17.73;60.65;100365.16;4887764;29;20059;-69
2021/10/05 09:20:28;;;;;;;7.45;1.20;;;;;;;17.74;59.40;100370.38;4882548;28;20468;-68
2021/10/05 09:23:07;;;;;;;4.60;1.48;;;;;;;17.87;58.81;100365.66;4882927;29;20036;-69
2021/10/05 09:25:36;;;;;;;5.07;1.20;;;;;;;17.83;59.16;100362.25;4886146;28;20108;-67
2021/10/05 09:28:22;;;;;;;3.97;1.30;;;;;;;17.83;59.91;100364.88;4878818;29;20567;-69
2021/10/05 09:31:07;;;;;;;6.10;1.40;;;;;;;17.37;60.51;100366.84;4889021;29;20043;-69
2021/10/05 09:33:35;;;;;;;3.28;1.13;;;;;;;17.36;60.59;100360.69;4882983;29;20046;-68
2021/10/05 09:36:01;;;;;;;3.38;1.23;;;;;;;17.52;60.40;100360.31;4890644;29;20368;-69
2021/10/05 09:38:28;;;;;;;3.17;1.35;;;;;;;17.62;61.26;100354.88;4884222;28;20069;-62
2021/10/05 09:40:59;;;;;;;4.85;1.20;;;;;;;17.69;60.02;100352.91;4877262;29;20044;-63
2021/10/05 09:43:25;;;;;;;4.15;1.33;;;;;;;17.40;60.75;100341.25;4857530;28;20478;-62
2021/10/05 09:45:50;;;;;;;6.43;1.45;;;;;;;17.54;60.73;100348.88;4892345;29;20082;-64
2021/10/05 09:48:16;;;;;;;8.32;1.40;;;;;;;17.78;60.47;100345.66;4879852;28;20525;-65
2021/10/05 09:50:41;;;;;;;3.47;1.40;;;;;;;17.86;60.65;100348.13;4872453;29;20056;-69
2021/10/05 09:53:12;;;;;;;5.03;1.30;;;;;;;17.84;59.72;100337.59;4888787;29;20552;-69
2021/10/05 09:55:42;;;;;;;3.47;1.10;;;;;;;18.16;58.77;100352.63;4889693;28;20043;-69
2021/10/05 09:58:08;;;;;;;10.05;1.60;;;;;;;18.18;58.70;100345.53;4838382;29;20035;-69
2021/10/05 10:00:37;;;;;;;10.15;1.50;;;;;;;18.06;59.06;100337.06;4885191;28;20059;-69
2021/10/05 10:03:05;;;;;;;5.60;1.27;;;;;;;18.07;59.05;100326.47;4872841;29;20135;-69
2021/10/05 10:05:30;;;;;;;4.10;1.50;;;;;;;17.98;59.54;100326.72;4892136;29;20122;-69
2021/10/05 10:07:57;;;;;;;6.38;1.38;;;;;;;18.07;58.73;100320.31;4887086;29;20046;-68
2021/10/05 10:10:31;;;;;;;10.05;1.50;;;;;;;18.01;59.34;100325.75;4869380;29;20587;-69
2021/10/05 10:13:05;;;;;;;5.55;1.40;;;;;;;18.09;59.22;100326.44;4865246;29;20288;-70
2021/10/05 10:15:35;;;;;;;6.20;1.48;;;;;;;17.91;59.90;100316.34;4872133;29;20122;-68
2021/10/05 10:18:05;;;;;;;4.85;1.45;;;;;;;18.00;60.01;100314.34;4874766;28;20058;-71
2021/10/05 10:20:30;;;;;;;3.22;1.30;;;;;;;18.04;59.07;100299.31;4855944;29;20032;-70
2021/10/05 10:22:56;;;;;;;5.78;1.52;;;;;;;17.73;59.98;100305.38;4895266;28;20059;-69
2021/10/05 10:25:26;;;;;;;6.53;1.60;;;;;;;17.88;60.08;100303.25;4886632;29;20122;-70
2021/10/05 10:27:56;;;;;;;4.15;1.33;;;;;;;17.99;59.63;100301.22;4874740;29;20537;-69
2021/10/05 10:30:25;;;;;;;2.92;1.20;;;;;;;17.87;60.60;100289.19;4863813;29;20386;-69
2021/10/05 10:32:53;;;;;;;8.10;1.58;;;;;;;17.71;60.38;100285.22;4872129;29;20035;-70
2021/10/05 10:35:19;;;;;;;4.53;1.50;;;;;;;17.69;60.66;100284.38;4891078;28;20043;-69
2021/10/05 10:37:50;;;;;;;5.93;1.60;;;;;;;17.63;63.21;100289.81;4869493;29;20079;-69
2021/10/05 10:40:18;;;;;;;3.53;1.50;;;;;;;17.56;62.35;100280.31;4883344;28;20047;-68
2021/10/05 10:42:43;;;;;;;4.97;1.70;;;;;;;17.90;61.39;100288.25;4877485;29;20056;-67
2021/10/05 10:45:19;;;;;;;7.47;2.00;;;;;;;17.82;62.59;100277.91;4889620;29;20166;-68
2021/10/05 10:47:46;;;;;;;5.35;1.50;;;;;;;17.94;62.44;100274.06;4885111;28;20107;-69
2021/10/05 10:50:14;;;;;;;4.10;1.50;;;;;;;17.82;61.88;100269.97;4881545;29;20284;-70
2021/10/05 10:52:46;;;;;;;10.38;1.90;;;;;;;17.91;62.85;100274.16;4889318;29;21841;-72
2021/10/05 10:55:14;;;;;;;3.97;1.48;;;;;;;18.08;61.97;100277.22;4869578;29;20059;-68
2021/10/05 10:57:52;;;;;;;3.47;1.80;;;;;;;18.05;62.42;100270.25;4886722;28;20115;-70
2021/10/05 11:00:24;;;;;;;5.18;1.70;;;;;;;17.77;63.99;100275.38;4877250;29;21323;-69
2021/10/05 11:02:52;;;;;;;4.35;1.60;;;;;;;17.61;64.05;100270.53;4893430;29;20122;-68
2021/10/05 11:05:24;;;;;;;6.75;1.45;;;;;;;17.67;64.23;100262.47;4888898;28;20040;-68
2021/10/05 11:07:51;;;;;;;7.05;1.67;;;;;;;17.31;65.41;100262.44;4889276;29;20895;-69
2021/10/05 11:10:17;;;;;;;6.50;1.85;;;;;;;17.17;66.00;100263.66;4875318;28;20136;-67
2021/10/05 11:12:50;;;;;;;5.63;1.80;;;;;;;17.11;66.91;100264.69;4877465;29;20066;-69
2021/10/05 11:15:18;;;;;;;6.15;1.80;;;;;;;17.18;66.30;100262.78;4891236;28;20039;-71
2021/10/05 11:17:45;;;;;;;3.42;1.60;;;;;;;17.07;67.09;100264.78;4876303;29;20040;-69
2021/10/05 11:20:11;;;;;;;6.07;1.73;;;;;;;16.89;68.44;100272.22;4887992;29;20048;-71
2021/10/05 11:22:36;;;;;;;4.78;1.80;;;;;;;16.84;68.81;100265.28;4883136;28;20270;-70
2021/10/05 11:25:03;;;;;;;4.50;1.80;;;;;;;16.50;69.79;100270.38;4885770;29;20047;-69